createdAt,value
2022-11-13T00:01:20.007Z,25.30
2022-11-13T00:03:49.628Z,25.30
2022-11-13T00:06:20.004Z,25.30
2022-11-13T00:08:48.901Z,25.20
2022-11-13T00:11:19.441Z,25.20
2022-11-13T00:13:49.196Z,25.20
2022-11-13T00:16:19.484Z,25.20
2022-11-13T00:18:49.475Z,25.20
2022-11-13T00:21:20.792Z,25.20
2022-11-13T00:23:49.229Z,25.20
2022-11-13T00:26:19.975Z,25.20
2022-11-13T00:28:48.872Z,25.20
2022-11-13T00:31:17.192Z,25.10
2022-11-13T00:34:09.202Z,25.10
2022-11-13T00:36:34.307Z,25.10
2022-11-13T00:39:02.252Z,25.10
2022-11-13T00:41:29.987Z,25.10
2022-11-13T00:43:57.747Z,25.10
2022-11-13T00:46:25.579Z,25.10
2022-11-13T00:48:53.395Z,25.10
2022-11-13T00:51:21.261Z,25.10
2022-11-13T00:53:50.488Z,25.00
2022-11-13T00:56:18.347Z,25.00
2022-11-13T00:58:46.409Z,25.00
2022-11-13T01:01:17.644Z,25.00
2022-11-13T01:03:46.288Z,25.00
2022-11-13T01:06:17.658Z,25.00
2022-11-13T01:08:45.997Z,25.00
2022-11-13T01:11:18.474Z,25.00
2022-11-13T01:13:49.778Z,25.00
2022-11-13T01:16:20.448Z,25.00
2022-11-13T01:18:48.334Z,25.00
2022-11-13T01:21:19.760Z,24.90
2022-11-13T01:23:47.897Z,24.90
2022-11-13T01:26:21.325Z,24.90
2022-11-13T01:28:49.528Z,24.90
2022-11-13T01:31:21.284Z,24.90
2022-11-13T01:33:50.366Z,24.90
2022-11-13T01:36:22.392Z,24.90
2022-11-13T01:38:51.413Z,24.90
2022-11-13T01:41:26.355Z,24.90
2022-11-13T01:43:55.457Z,24.90
2022-11-13T01:46:30.863Z,24.90
2022-11-13T01:49:19.013Z,24.80
2022-11-13T01:51:51.866Z,24.80
2022-11-13T01:54:26.626Z,24.80
2022-11-13T01:56:56.512Z,24.80
2022-11-13T01:59:30.074Z,24.80
2022-11-13T02:01:58.578Z,24.80
2022-11-13T02:04:28.905Z,24.80
2022-11-13T02:07:01.418Z,24.80
2022-11-13T02:09:34.995Z,24.70
2022-11-13T02:12:07.945Z,24.80
2022-11-13T02:14:40.415Z,24.80
2022-11-13T02:17:12.549Z,24.70
2022-11-13T02:19:45.130Z,24.70
2022-11-13T02:22:26.407Z,24.70
2022-11-13T02:24:58.861Z,24.70
2022-11-13T02:27:35.063Z,24.70
2022-11-13T02:30:16.271Z,24.70
2022-11-13T02:32:46.084Z,24.70
2022-11-13T02:35:16.823Z,24.70
2022-11-13T02:37:44.853Z,24.70
2022-11-13T02:40:15.130Z,24.70
2022-11-13T02:42:43.069Z,24.70
2022-11-13T02:45:12.003Z,24.70
2022-11-13T02:47:39.789Z,24.60
2022-11-13T02:50:10.248Z,24.60
2022-11-13T02:52:38.194Z,24.60
2022-11-13T02:55:07.469Z,24.60
2022-11-13T02:57:36.976Z,24.60
2022-11-13T03:00:10.702Z,24.60
2022-11-13T03:02:41.702Z,24.60
2022-11-13T03:05:12.605Z,24.60
2022-11-13T03:07:41.319Z,24.60
2022-11-13T03:10:11.344Z,24.60
2022-11-13T03:12:40.845Z,24.60
2022-11-13T03:15:10.800Z,24.50
2022-11-13T03:17:38.649Z,24.50
2022-11-13T03:20:07.753Z,24.50
2022-11-13T03:22:35.606Z,24.50
2022-11-13T03:25:08.914Z,24.50
2022-11-13T03:27:38.141Z,24.50
2022-11-13T03:30:09.419Z,24.50
2022-11-13T03:32:37.204Z,24.50
2022-11-13T03:35:06.492Z,24.50
2022-11-13T03:37:34.407Z,24.50
2022-11-13T03:40:02.262Z,24.50
2022-11-13T03:42:30.099Z,24.50
2022-11-13T03:44:57.902Z,24.50
2022-11-13T03:47:27.063Z,24.40
2022-11-13T03:49:54.921Z,24.40
2022-11-13T03:52:22.766Z,24.40
2022-11-13T03:54:50.647Z,24.40
2022-11-13T03:57:18.479Z,24.40
2022-11-13T03:59:46.307Z,24.40
2022-11-13T04:02:14.115Z,24.40
2022-11-13T04:04:43.310Z,24.40
2022-11-13T04:07:11.138Z,24.40
2022-11-13T04:09:38.938Z,24.40
2022-11-13T04:12:07.460Z,24.40
2022-11-13T04:14:35.370Z,24.40
2022-11-13T04:17:03.167Z,24.30
2022-11-13T04:19:30.983Z,24.30
2022-11-13T04:22:00.158Z,24.30
2022-11-13T04:24:27.983Z,24.30
2022-11-13T04:26:56.407Z,24.30
2022-11-13T04:29:24.311Z,24.30
2022-11-13T04:31:52.149Z,24.30
2022-11-13T04:34:19.987Z,24.30
2022-11-13T04:36:47.794Z,24.30
2022-11-13T04:39:16.907Z,24.30
2022-11-13T04:42:13.697Z,24.30
2022-11-13T04:44:41.527Z,24.20
2022-11-13T04:47:10.274Z,24.20
2022-11-13T04:49:38.057Z,24.20
2022-11-13T04:52:06.380Z,24.20
2022-11-13T04:54:35.547Z,24.20
2022-11-13T04:57:03.502Z,24.20
2022-11-13T04:59:31.438Z,24.20
2022-11-13T05:01:59.636Z,24.20
2022-11-13T05:04:27.568Z,24.20
2022-11-13T05:06:56.058Z,24.20
2022-11-13T05:09:23.962Z,24.20
2022-11-13T05:11:53.094Z,24.20
2022-11-13T05:14:20.918Z,24.20
2022-11-13T05:16:49.998Z,24.20
2022-11-13T05:19:18.541Z,24.20
2022-11-13T05:21:46.482Z,24.10
2022-11-13T05:24:14.556Z,24.10
2022-11-13T05:26:42.358Z,24.10
2022-11-13T05:29:11.521Z,24.10
2022-11-13T05:31:39.417Z,24.10
2022-11-13T05:34:07.910Z,24.10
2022-11-13T05:36:35.868Z,24.10
2022-11-13T05:39:04.648Z,24.10
2022-11-13T05:41:32.498Z,24.10
2022-11-13T05:44:00.950Z,24.10
2022-11-13T05:46:31.842Z,24.10
2022-11-13T05:49:03.033Z,24.00
2022-11-13T05:51:33.514Z,24.00
2022-11-13T05:54:03.787Z,24.00
2022-11-13T05:56:34.537Z,24.00
2022-11-13T05:59:04.207Z,24.00
2022-11-13T06:01:36.789Z,24.00
2022-11-13T06:04:07.187Z,24.00
2022-11-13T06:06:35.858Z,24.00
2022-11-13T06:09:07.171Z,24.00
2022-11-13T06:11:35.004Z,24.00
2022-11-13T06:14:03.166Z,24.00
2022-11-13T06:16:37.340Z,24.00
2022-11-13T06:19:08.853Z,24.00
2022-11-13T06:21:40.549Z,24.00
2022-11-13T06:24:11.950Z,24.00
2022-11-13T06:26:40.011Z,24.10
2022-11-13T06:29:11.241Z,24.10
2022-11-13T06:31:40.680Z,24.00
2022-11-13T06:34:08.882Z,24.10
2022-11-13T06:36:38.480Z,24.10
2022-11-13T06:39:10.895Z,24.10
2022-11-13T06:41:40.038Z,24.10
2022-11-13T06:44:07.947Z,24.10
2022-11-13T06:46:35.804Z,24.10
2022-11-13T06:49:05.062Z,24.10
2022-11-13T06:51:33.231Z,24.10
2022-11-13T06:54:01.243Z,24.10
2022-11-13T06:56:29.156Z,24.10
2022-11-13T06:58:57.098Z,24.10
2022-11-13T07:01:27.438Z,24.10
2022-11-13T07:03:55.766Z,24.10
2022-11-13T07:06:26.152Z,24.20
2022-11-13T07:08:54.371Z,24.20
2022-11-13T07:11:24.666Z,24.20
2022-11-13T07:13:52.798Z,24.20
2022-11-13T07:16:20.649Z,24.20
2022-11-13T07:18:52.668Z,24.20
2022-11-13T07:21:21.635Z,24.20
2022-11-13T07:23:52.322Z,24.20
2022-11-13T07:26:20.877Z,24.20
2022-11-13T07:28:50.075Z,24.20
2022-11-13T07:31:19.110Z,24.20
2022-11-13T07:33:50.543Z,24.20
2022-11-13T07:36:18.682Z,24.20
2022-11-13T07:38:49.675Z,24.20
2022-11-13T07:41:18.832Z,24.20
2022-11-13T07:43:46.780Z,24.30
2022-11-13T07:46:14.691Z,24.30
2022-11-13T07:48:42.483Z,24.30
2022-11-13T07:51:10.673Z,24.30
2022-11-13T07:53:39.042Z,24.30
2022-11-13T07:56:08.098Z,24.30
2022-11-13T07:58:37.369Z,24.30
2022-11-13T08:01:06.955Z,24.30
2022-11-13T08:03:34.846Z,24.40
2022-11-13T08:06:05.649Z,24.40
2022-11-13T08:08:34.469Z,24.40
2022-11-13T08:11:06.304Z,24.40
2022-11-13T08:13:34.936Z,24.40
2022-11-13T08:16:05.231Z,24.50
2022-11-13T08:18:34.128Z,24.50
2022-11-13T08:21:03.557Z,24.50
2022-11-13T08:23:31.726Z,24.50
2022-11-13T08:25:59.995Z,24.60
2022-11-13T08:28:28.155Z,24.60
2022-11-13T08:30:56.234Z,24.60
2022-11-13T08:33:25.501Z,24.60
2022-11-13T08:35:55.431Z,24.70
2022-11-13T08:38:24.221Z,24.70
2022-11-13T08:40:52.078Z,24.80
2022-11-13T08:43:20.389Z,24.80
2022-11-13T08:45:48.597Z,24.80
2022-11-13T08:48:16.599Z,24.90
2022-11-13T08:50:46.024Z,24.90
2022-11-13T08:53:13.874Z,25.00
2022-11-13T08:55:41.668Z,25.00
2022-11-13T08:58:10.728Z,25.00
2022-11-13T09:00:38.586Z,25.10
2022-11-13T09:03:06.454Z,25.10
2022-11-13T09:05:34.295Z,25.20
2022-11-13T09:08:04.479Z,25.20
2022-11-13T09:10:32.274Z,25.30
2022-11-13T09:13:02.873Z,25.30
2022-11-13T09:15:31.661Z,25.30
2022-11-13T09:18:00.597Z,25.30
2022-11-13T09:20:29.671Z,25.40
2022-11-13T09:22:59.121Z,25.40
2022-11-13T09:25:36.868Z,25.40
2022-11-13T09:28:06.671Z,25.40
2022-11-13T09:30:35.014Z,25.40
2022-11-13T09:33:03.297Z,25.50
2022-11-13T09:35:36.398Z,25.50
2022-11-13T09:38:11.287Z,25.50
2022-11-13T09:40:48.054Z,25.50
2022-11-13T09:43:28.878Z,25.60
2022-11-13T09:46:03.366Z,25.70
2022-11-13T09:48:36.771Z,25.70
2022-11-13T09:51:14.146Z,25.90
2022-11-13T09:53:42.887Z,26.00
2022-11-13T09:56:28.953Z,26.10
2022-11-13T09:59:07.171Z,26.20
2022-11-13T10:01:55.097Z,26.40
2022-11-13T10:04:34.355Z,26.50
2022-11-13T10:07:19.706Z,26.60
2022-11-13T10:10:03.222Z,26.70
2022-11-13T10:12:34.519Z,26.80
2022-11-13T10:15:06.198Z,26.80
2022-11-13T10:17:41.715Z,26.90
2022-11-13T10:20:17.021Z,26.90
2022-11-13T10:22:52.231Z,27.00
2022-11-13T10:25:25.223Z,27.00
2022-11-13T10:27:59.987Z,27.10
2022-11-13T10:30:29.594Z,27.10
2022-11-13T10:33:06.930Z,27.10
2022-11-13T10:35:51.056Z,27.20
2022-11-13T10:38:26.474Z,27.20
2022-11-13T10:41:08.769Z,27.20
2022-11-13T10:43:53.041Z,27.20
2022-11-13T10:46:24.676Z,27.30
2022-11-13T10:48:52.765Z,27.30
2022-11-13T10:51:26.341Z,27.30
2022-11-13T10:53:56.168Z,27.30
2022-11-13T10:56:29.988Z,27.30
2022-11-13T10:59:12.438Z,27.30
2022-11-13T11:01:41.370Z,27.30
2022-11-13T11:04:16.014Z,27.30
2022-11-13T11:09:33.435Z,27.30
2022-11-13T11:12:19.712Z,27.40
2022-11-13T11:15:04.692Z,27.40
2022-11-13T11:17:43.784Z,27.40
2022-11-13T11:20:33.499Z,27.40
2022-11-13T11:23:12.010Z,27.40
2022-11-13T11:25:45.027Z,27.40
2022-11-13T11:28:20.497Z,27.40
2022-11-13T11:31:01.597Z,27.40
2022-11-13T11:33:35.527Z,27.40
2022-11-13T11:36:14.978Z,27.40
2022-11-13T11:38:54.154Z,27.40
2022-11-13T11:41:32.643Z,27.40
2022-11-13T11:44:16.153Z,27.40
2022-11-13T11:46:46.875Z,27.40
2022-11-13T11:49:16.614Z,27.40
2022-11-13T11:52:01.378Z,27.40
2022-11-13T11:54:42.525Z,27.40
2022-11-13T11:57:29.993Z,27.40
2022-11-13T12:00:11.942Z,27.50
2022-11-13T12:03:12.081Z,27.50
2022-11-13T12:05:52.700Z,27.50
2022-11-13T12:08:36.026Z,27.50
2022-11-13T12:11:15.350Z,27.50
2022-11-13T12:13:56.349Z,27.50
2022-11-13T12:16:29.683Z,27.50
2022-11-13T12:19:05.947Z,27.50
2022-11-13T12:21:49.508Z,27.50
2022-11-13T12:24:37.464Z,27.50
2022-11-13T12:27:22.374Z,27.50
2022-11-13T12:30:06.114Z,27.50
2022-11-13T12:32:56.011Z,27.50
2022-11-13T12:35:28.097Z,27.50
2022-11-13T12:38:02.154Z,27.50
2022-11-13T12:40:44.242Z,27.50
2022-11-13T12:43:43.405Z,27.50
2022-11-13T12:46:13.661Z,27.50
2022-11-13T12:48:44.444Z,27.50
2022-11-13T12:51:16.333Z,27.50
2022-11-13T12:53:48.362Z,27.50
2022-11-13T12:56:32.053Z,27.50
2022-11-13T13:02:05.791Z,27.50
2022-11-13T13:04:55.587Z,27.50
2022-11-13T13:08:05.695Z,27.50
2022-11-13T13:10:47.591Z,27.50
2022-11-13T13:13:26.865Z,27.50
2022-11-13T13:15:58.450Z,27.50
2022-11-13T13:18:30.872Z,27.50
2022-11-13T13:21:09.902Z,27.50
2022-11-13T13:23:41.692Z,27.50
2022-11-13T13:26:19.282Z,27.50
2022-11-13T13:28:52.999Z,27.50
2022-11-13T13:31:37.126Z,27.40
2022-11-13T13:34:34.632Z,27.40
2022-11-13T13:37:16.026Z,27.40
2022-11-13T13:40:01.081Z,27.40
2022-11-13T13:42:50.357Z,27.40
2022-11-13T13:45:35.372Z,27.40
2022-11-13T13:48:08.810Z,27.40
2022-11-13T13:50:45.821Z,27.40
2022-11-13T13:53:20.282Z,27.40
2022-11-13T13:55:53.482Z,27.40
2022-11-13T13:58:27.943Z,27.40
2022-11-13T14:01:17.691Z,27.40
2022-11-13T14:03:46.601Z,27.40
2022-11-13T14:06:22.482Z,27.40
2022-11-13T14:08:50.556Z,27.40
2022-11-13T14:11:26.742Z,27.40
2022-11-13T14:13:54.572Z,27.40
2022-11-13T14:16:22.747Z,27.40
2022-11-13T14:18:50.635Z,27.40
2022-11-13T14:21:22.953Z,27.30
2022-11-13T14:23:54.092Z,27.30
2022-11-13T14:26:23.665Z,27.30
2022-11-13T14:28:56.861Z,27.30
2022-11-13T14:31:30.493Z,27.30
2022-11-13T14:34:02.692Z,27.30
2022-11-13T14:36:34.953Z,27.20
2022-11-13T14:39:02.978Z,27.20
2022-11-13T14:41:37.025Z,27.20
2022-11-13T14:44:05.572Z,27.20
2022-11-13T14:46:38.110Z,27.20
2022-11-13T14:49:13.837Z,27.10
2022-11-13T14:51:42.286Z,27.10
2022-11-13T14:57:25.426Z,27.10
2022-11-13T14:59:53.211Z,27.10
2022-11-13T15:02:21.016Z,27.00
2022-11-13T15:04:49.004Z,27.00
2022-11-13T15:07:26.108Z,27.00
2022-11-13T15:09:54.002Z,26.90
2022-11-13T15:12:21.842Z,26.90
2022-11-13T15:14:51.435Z,26.90
2022-11-13T15:17:23.067Z,26.90
2022-11-13T15:19:55.328Z,26.90
2022-11-13T15:22:28.659Z,26.80
2022-11-13T15:24:56.813Z,26.80
2022-11-13T15:27:24.639Z,26.80
2022-11-13T15:29:53.780Z,26.80
2022-11-13T15:32:21.578Z,26.80
2022-11-13T15:34:49.416Z,26.70
2022-11-13T15:37:18.512Z,26.70
2022-11-13T15:39:47.026Z,26.70
2022-11-13T15:42:18.600Z,26.70
2022-11-13T15:44:46.444Z,26.70
2022-11-13T15:47:28.950Z,26.60
2022-11-13T15:50:12.754Z,26.60
2022-11-13T15:52:45.693Z,26.60
2022-11-13T15:55:25.563Z,26.60
2022-11-13T15:57:54.635Z,26.60
2022-11-13T16:00:26.169Z,26.50
2022-11-13T16:02:57.898Z,26.50
2022-11-13T16:05:29.307Z,26.50
2022-11-13T16:07:57.967Z,26.50
2022-11-13T16:10:26.713Z,26.40
2022-11-13T16:12:55.464Z,26.40
2022-11-13T16:15:23.505Z,26.40
2022-11-13T16:17:57.439Z,26.40
2022-11-13T16:20:26.077Z,26.40
2022-11-13T16:22:54.956Z,26.30
2022-11-13T16:25:24.080Z,26.30
2022-11-13T16:27:53.075Z,26.30
2022-11-13T16:30:24.827Z,26.30
2022-11-13T16:32:52.667Z,26.30
2022-11-13T16:35:21.982Z,26.20
2022-11-13T16:37:49.834Z,26.20
2022-11-13T16:40:24.507Z,26.20
2022-11-13T16:42:52.647Z,26.20
2022-11-13T16:45:22.256Z,26.20
2022-11-13T16:47:51.397Z,26.20
2022-11-13T16:50:24.579Z,26.20
2022-11-13T16:52:52.503Z,26.20
2022-11-13T16:55:20.509Z,26.20
2022-11-13T16:57:48.299Z,26.10
2022-11-13T17:00:19.665Z,26.10
2022-11-13T17:02:50.565Z,26.10
2022-11-13T17:05:18.802Z,26.10
2022-11-13T17:07:47.951Z,26.20
2022-11-13T17:10:34.051Z,26.20
2022-11-13T17:13:01.959Z,26.20
2022-11-13T17:15:29.907Z,26.10
2022-11-13T17:17:59.369Z,26.10
2022-11-13T17:20:28.053Z,26.10
2022-11-13T17:22:57.213Z,26.10
2022-11-13T17:25:26.910Z,26.10
2022-11-13T17:27:55.295Z,26.10
2022-11-13T17:30:23.220Z,26.10
2022-11-13T17:32:51.035Z,26.10
2022-11-13T17:35:18.850Z,26.10
2022-11-13T17:37:46.659Z,26.10
2022-11-13T17:40:16.471Z,26.00
2022-11-13T17:42:44.280Z,26.00
2022-11-13T17:45:12.181Z,26.00
2022-11-13T17:47:39.964Z,26.00
2022-11-13T17:50:08.993Z,26.00
2022-11-13T17:52:36.791Z,26.00
2022-11-13T17:55:06.256Z,26.00
2022-11-13T17:57:35.586Z,26.00
2022-11-13T18:00:04.747Z,26.00
2022-11-13T18:02:34.044Z,26.00
2022-11-13T18:05:04.125Z,26.00
2022-11-13T18:07:32.402Z,26.00
2022-11-13T18:10:00.191Z,26.00
2022-11-13T18:12:28.029Z,26.00
2022-11-13T18:14:57.374Z,26.00
2022-11-13T18:17:26.045Z,25.90
2022-11-13T18:20:00.369Z,26.00
2022-11-13T18:22:29.939Z,26.00
2022-11-13T18:24:57.779Z,26.00
2022-11-13T18:27:25.646Z,26.00
2022-11-13T18:29:53.435Z,26.00
2022-11-13T18:32:22.670Z,25.90
2022-11-13T18:34:50.519Z,25.90
2022-11-13T18:37:18.371Z,25.90
2022-11-13T18:39:46.287Z,25.90
2022-11-13T18:42:14.066Z,25.90
2022-11-13T18:44:41.857Z,25.90
2022-11-13T18:47:09.789Z,25.90
2022-11-13T18:49:38.950Z,25.90
2022-11-13T18:52:06.985Z,25.90
2022-11-13T18:54:35.267Z,25.90
2022-11-13T18:57:03.145Z,25.90
2022-11-13T18:59:32.405Z,25.90
2022-11-13T19:02:00.496Z,25.90
2022-11-13T19:04:28.404Z,25.90
2022-11-13T19:06:58.545Z,25.90
2022-11-13T19:09:26.558Z,25.90
2022-11-13T19:11:55.468Z,25.90
2022-11-13T19:14:23.332Z,25.90
2022-11-13T19:16:51.118Z,25.90
2022-11-13T19:19:22.008Z,25.90
2022-11-13T19:21:51.183Z,25.90
2022-11-13T19:24:20.641Z,25.90
2022-11-13T19:26:48.477Z,25.90
2022-11-13T19:29:16.395Z,25.90
2022-11-13T19:31:46.573Z,25.90
2022-11-13T19:34:15.095Z,25.90
2022-11-13T19:36:45.123Z,25.90
2022-11-13T19:39:13.334Z,25.90
2022-11-13T19:41:42.494Z,25.80
2022-11-13T19:44:10.985Z,25.90
2022-11-13T19:46:38.808Z,25.90
2022-11-13T19:49:06.997Z,25.90
2022-11-13T19:51:34.802Z,25.90
2022-11-13T19:54:02.661Z,25.90
2022-11-13T19:56:30.515Z,25.90
2022-11-13T19:58:59.766Z,25.90
2022-11-13T20:01:31.828Z,25.90
2022-11-13T20:04:02.973Z,25.90
2022-11-13T20:06:32.626Z,25.90
2022-11-13T20:09:01.762Z,25.90
2022-11-13T20:11:30.082Z,25.90
2022-11-13T20:13:59.593Z,25.90
2022-11-13T20:16:27.780Z,25.90
2022-11-13T20:18:58.664Z,25.90
2022-11-13T20:21:27.318Z,25.90
2022-11-13T20:23:58.197Z,25.90
2022-11-13T20:26:27.460Z,25.90
2022-11-13T20:28:55.270Z,25.90
2022-11-13T20:31:27.641Z,25.90
2022-11-13T20:33:57.746Z,25.90
2022-11-13T20:36:26.098Z,25.90
2022-11-13T20:38:55.723Z,25.90
2022-11-13T20:41:25.424Z,25.80
2022-11-13T20:43:55.684Z,25.90
2022-11-13T20:46:24.820Z,25.80
2022-11-13T20:48:52.633Z,25.80
2022-11-13T20:51:23.617Z,25.80
2022-11-13T20:53:51.858Z,25.80
2022-11-13T20:56:21.990Z,25.90
2022-11-13T20:58:50.034Z,25.80
2022-11-13T21:01:20.948Z,25.80
2022-11-13T21:03:50.237Z,25.80
2022-11-13T21:06:20.556Z,25.80
2022-11-13T21:08:49.121Z,25.80
2022-11-13T21:11:21.855Z,25.80
2022-11-13T21:13:51.197Z,25.80
2022-11-13T21:16:19.158Z,25.80
2022-11-13T21:18:47.869Z,25.80
2022-11-13T21:21:19.765Z,25.80
2022-11-13T21:23:48.638Z,25.80
2022-11-13T21:26:17.624Z,25.80
2022-11-13T21:28:45.765Z,25.80
2022-11-13T21:31:16.554Z,25.80
2022-11-13T21:33:47.054Z,25.70
2022-11-13T21:36:18.617Z,25.80
2022-11-13T21:38:47.195Z,25.80
2022-11-13T21:41:25.718Z,25.80
2022-11-13T21:43:58.786Z,25.80
2022-11-13T21:46:30.352Z,25.80
2022-11-13T21:49:00.448Z,25.80
2022-11-13T21:51:31.220Z,25.80
2022-11-13T21:53:59.546Z,25.80
2022-11-13T21:56:29.374Z,25.80
2022-11-13T21:58:57.790Z,25.80
2022-11-13T22:01:27.265Z,25.80
2022-11-13T22:03:56.078Z,25.80
2022-11-13T22:06:26.592Z,25.70
2022-11-13T22:08:58.127Z,25.70
2022-11-13T22:11:28.863Z,25.70
2022-11-13T22:13:57.633Z,25.70
2022-11-13T22:16:27.644Z,25.70
2022-11-13T22:18:57.551Z,25.70
2022-11-13T22:21:27.716Z,25.70
2022-11-13T22:23:57.728Z,25.80
2022-11-13T22:26:27.658Z,25.70
2022-11-13T22:28:56.965Z,25.70
2022-11-13T22:31:29.573Z,25.70
2022-11-13T22:33:58.011Z,25.80
2022-11-13T22:36:29.298Z,25.80
2022-11-13T22:38:59.692Z,25.70
2022-11-13T22:41:30.737Z,25.80
2022-11-13T22:44:00.745Z,25.80
2022-11-13T22:46:31.496Z,25.80
2022-11-13T22:49:02.588Z,25.80
2022-11-13T22:51:35.009Z,25.80
2022-11-13T22:54:06.935Z,25.80
2022-11-13T22:56:36.602Z,25.70
2022-11-13T22:59:08.059Z,25.70
2022-11-13T23:01:39.279Z,25.70
2022-11-13T23:04:09.372Z,25.70
2022-11-13T23:06:37.494Z,25.70
2022-11-13T23:09:07.689Z,25.70
2022-11-13T23:11:38.883Z,25.70
2022-11-13T23:14:11.762Z,25.70
2022-11-13T23:16:40.303Z,25.70
2022-11-13T23:19:08.519Z,25.70
2022-11-13T23:21:36.466Z,25.70
2022-11-13T23:24:06.448Z,25.70
2022-11-13T23:26:34.218Z,25.60
2022-11-13T23:29:02.073Z,25.60
2022-11-13T23:31:29.852Z,25.60
2022-11-13T23:33:57.744Z,25.60
2022-11-13T23:36:27.409Z,25.60
2022-11-13T23:38:55.176Z,25.60
2022-11-13T23:41:24.381Z,25.60
2022-11-13T23:44:08.260Z,25.60
2022-11-13T23:46:36.866Z,25.60
2022-11-13T23:49:04.687Z,25.50
2022-11-13T23:51:32.474Z,25.50
2022-11-13T23:54:00.386Z,25.50
2022-11-13T23:56:29.636Z,25.50
2022-11-13T23:58:57.480Z,25.50
